sensor_id;sensor_type;location;lat;lon;timestamp;pressure;altitude;pressure_sealevel;temperature
70533;BMP180;58088;51.186;17.130;2023-04-01T00:01:45;98450.20;;;11.90
70533;BMP180;58088;51.186;17.130;2023-04-01T00:04:11;98455.20;;;11.90
70533;BMP180;58088;51.186;17.130;2023-04-01T00:06:37;98460.00;;;11.90
70533;BMP180;58088;51.186;17.130;2023-04-01T00:09:03;98459.00;;;11.90
70533;BMP180;58088;51.186;17.130;2023-04-01T00:11:33;98460.00;;;11.92
70533;BMP180;58088;51.186;17.130;2023-04-01T00:13:59;98452.80;;;11.96
70533;BMP180;58088;51.186;17.130;2023-04-01T00:16:26;98458.80;;;12.00
70533;BMP180;58088;51.186;17.130;2023-04-01T00:18:52;98451.20;;;12.00
70533;BMP180;58088;51.186;17.130;2023-04-01T00:21:20;98456.20;;;12.00
70533;BMP180;58088;51.186;17.130;2023-04-01T00:23:50;98453.40;;;12.00
70533;BMP180;58088;51.186;17.130;2023-04-01T00:26:17;98455.00;;;12.00
70533;BMP180;58088;51.186;17.130;2023-04-01T00:28:47;98453.60;;;12.00
70533;BMP180;58088;51.186;17.130;2023-04-01T00:31:14;98453.40;;;12.00
70533;BMP180;58088;51.186;17.130;2023-04-01T00:33:40;98449.80;;;12.00
70533;BMP180;58088;51.186;17.130;2023-04-01T00:36:13;98451.40;;;12.00
70533;BMP180;58088;51.186;17.130;2023-04-01T00:38:41;98457.60;;;12.00
70533;BMP180;58088;51.186;17.130;2023-04-01T00:41:10;98453.20;;;12.00
70533;BMP180;58088;51.186;17.130;2023-04-01T00:43:50;98455.00;;;12.00
70533;BMP180;58088;51.186;17.130;2023-04-01T00:46:17;98456.00;;;11.90
70533;BMP180;58088;51.186;17.130;2023-04-01T00:48:50;98451.80;;;11.90
70533;BMP180;58088;51.186;17.130;2023-04-01T00:51:22;98451.20;;;11.90
70533;BMP180;58088;51.186;17.130;2023-04-01T00:53:53;98447.20;;;11.88
70533;BMP180;58088;51.186;17.130;2023-04-01T00:56:26;98451.80;;;11.90
70533;BMP180;58088;51.186;17.130;2023-04-01T00:59:19;98446.80;;;11.90
70533;BMP180;58088;51.186;17.130;2023-04-01T01:01:46;98452.60;;;11.90
70533;BMP180;58088;51.186;17.130;2023-04-01T01:04:27;98449.80;;;11.92
70533;BMP180;58088;51.186;17.130;2023-04-01T01:07:26;98452.00;;;11.92
70533;BMP180;58088;51.186;17.130;2023-04-01T01:18:00;98450.80;;;11.90
70533;BMP180;58088;51.186;17.130;2023-04-01T01:37:31;98443.00;;;11.90
70533;BMP180;58088;51.186;17.130;2023-04-01T01:40:06;98446.20;;;11.90
70533;BMP180;58088;51.186;17.130;2023-04-01T01:42:40;98447.80;;;11.90
70533;BMP180;58088;51.186;17.130;2023-04-01T01:45:10;98449.00;;;11.90
70533;BMP180;58088;51.186;17.130;2023-04-01T01:47:40;98452.40;;;11.90
70533;BMP180;58088;51.186;17.130;2023-04-01T01:50:09;98448.00;;;11.90
70533;BMP180;58088;51.186;17.130;2023-04-01T01:52:36;98442.80;;;11.90
70533;BMP180;58088;51.186;17.130;2023-04-01T01:55:03;98445.40;;;11.90
70533;BMP180;58088;51.186;17.130;2023-04-01T01:57:44;98438.20;;;11.90
70533;BMP180;58088;51.186;17.130;2023-04-01T02:00:16;98442.20;;;11.90
70533;BMP180;58088;51.186;17.130;2023-04-01T02:02:46;98433.80;;;11.90
70533;BMP180;58088;51.186;17.130;2023-04-01T02:05:24;98437.40;;;11.90
70533;BMP180;58088;51.186;17.130;2023-04-01T02:08:12;98435.40;;;11.90
70533;BMP180;58088;51.186;17.130;2023-04-01T02:10:43;98435.40;;;11.90
70533;BMP180;58088;51.186;17.130;2023-04-01T02:13:55;98439.60;;;11.94
70533;BMP180;58088;51.186;17.130;2023-04-01T02:16:33;98435.00;;;11.90
70533;BMP180;58088;51.186;17.130;2023-04-01T02:19:05;98442.40;;;12.00
70533;BMP180;58088;51.186;17.130;2023-04-01T02:21:38;98431.40;;;12.00
70533;BMP180;58088;51.186;17.130;2023-04-01T02:24:10;98431.60;;;12.00
70533;BMP180;58088;51.186;17.130;2023-04-01T02:26:39;98427.00;;;12.00
70533;BMP180;58088;51.186;17.130;2023-04-01T02:29:08;98427.60;;;12.00
70533;BMP180;58088;51.186;17.130;2023-04-01T02:31:36;98424.40;;;12.00
70533;BMP180;58088;51.186;17.130;2023-04-01T02:34:03;98421.00;;;12.00
70533;BMP180;58088;51.186;17.130;2023-04-01T02:36:30;98426.00;;;12.00
70533;BMP180;58088;51.186;17.130;2023-04-01T02:38:58;98425.00;;;12.00
70533;BMP180;58088;51.186;17.130;2023-04-01T02:41:28;98422.00;;;12.00
70533;BMP180;58088;51.186;17.130;2023-04-01T02:43:55;98427.60;;;12.00
70533;BMP180;58088;51.186;17.130;2023-04-01T02:46:23;98424.40;;;12.00
70533;BMP180;58088;51.186;17.130;2023-04-01T02:48:49;98421.00;;;12.08
70533;BMP180;58088;51.186;17.130;2023-04-01T02:51:15;98426.80;;;12.10
70533;BMP180;58088;51.186;17.130;2023-04-01T02:53:41;98426.20;;;12.10
70533;BMP180;58088;51.186;17.130;2023-04-01T02:56:08;98427.60;;;12.20
70533;BMP180;58088;51.186;17.130;2023-04-01T02:58:34;98428.20;;;12.20
70533;BMP180;58088;51.186;17.130;2023-04-01T03:01:00;98435.40;;;12.20
70533;BMP180;58088;51.186;17.130;2023-04-01T03:03:26;98439.60;;;12.20
70533;BMP180;58088;51.186;17.130;2023-04-01T03:05:52;98438.20;;;12.20
70533;BMP180;58088;51.186;17.130;2023-04-01T03:08:22;98433.40;;;12.20
70533;BMP180;58088;51.186;17.130;2023-04-01T03:10:48;98436.80;;;12.20
70533;BMP180;58088;51.186;17.130;2023-04-01T03:13:14;98437.80;;;12.20
70533;BMP180;58088;51.186;17.130;2023-04-01T03:15:41;98440.20;;;12.20
70533;BMP180;58088;51.186;17.130;2023-04-01T03:18:07;98444.20;;;12.10
70533;BMP180;58088;51.186;17.130;2023-04-01T03:20:34;98440.80;;;12.02
70533;BMP180;58088;51.186;17.130;2023-04-01T03:23:00;98444.20;;;12.00
70533;BMP180;58088;51.186;17.130;2023-04-01T03:25:26;98446.80;;;12.00
70533;BMP180;58088;51.186;17.130;2023-04-01T03:27:54;98443.80;;;11.98
70533;BMP180;58088;51.186;17.130;2023-04-01T03:30:21;98440.40;;;11.94
70533;BMP180;58088;51.186;17.130;2023-04-01T03:32:49;98447.40;;;11.98
70533;BMP180;58088;51.186;17.130;2023-04-01T03:35:15;98437.80;;;11.92
70533;BMP180;58088;51.186;17.130;2023-04-01T03:37:42;98445.80;;;11.94
70533;BMP180;58088;51.186;17.130;2023-04-01T03:40:09;98443.00;;;11.94
70533;BMP180;58088;51.186;17.130;2023-04-01T03:42:36;98446.20;;;12.00
70533;BMP180;58088;51.186;17.130;2023-04-01T03:45:04;98445.60;;;12.00
70533;BMP180;58088;51.186;17.130;2023-04-01T03:47:30;98446.80;;;12.00
70533;BMP180;58088;51.186;17.130;2023-04-01T03:49:57;98447.40;;;12.00
70533;BMP180;58088;51.186;17.130;2023-04-01T03:52:23;98446.00;;;12.00
70533;BMP180;58088;51.186;17.130;2023-04-01T03:54:49;98444.80;;;12.00
70533;BMP180;58088;51.186;17.130;2023-04-01T03:57:15;98451.00;;;12.00
70533;BMP180;58088;51.186;17.130;2023-04-01T03:59:42;98454.00;;;12.00
70533;BMP180;58088;51.186;17.130;2023-04-01T04:02:08;98453.00;;;12.00
70533;BMP180;58088;51.186;17.130;2023-04-01T04:04:35;98456.00;;;12.04
70533;BMP180;58088;51.186;17.130;2023-04-01T04:07:02;98455.40;;;12.08
70533;BMP180;58088;51.186;17.130;2023-04-01T04:09:31;98459.00;;;12.08
70533;BMP180;58088;51.186;17.130;2023-04-01T04:11:57;98461.20;;;12.02
70533;BMP180;58088;51.186;17.130;2023-04-01T04:14:24;98463.60;;;12.00
70533;BMP180;58088;51.186;17.130;2023-04-01T04:16:50;98462.80;;;12.00
70533;BMP180;58088;51.186;17.130;2023-04-01T04:19:17;98467.40;;;12.00
70533;BMP180;58088;51.186;17.130;2023-04-01T04:21:43;98465.40;;;12.00
70533;BMP180;58088;51.186;17.130;2023-04-01T04:24:10;98468.60;;;12.00
70533;BMP180;58088;51.186;17.130;2023-04-01T04:26:54;98468.60;;;12.00
70533;BMP180;58088;51.186;17.130;2023-04-01T04:29:20;98473.00;;;12.00
70533;BMP180;58088;51.186;17.130;2023-04-01T04:31:48;98470.60;;;12.00
70533;BMP180;58088;51.186;17.130;2023-04-01T04:34:15;98471.40;;;12.00
70533;BMP180;58088;51.186;17.130;2023-04-01T04:36:41;98468.40;;;11.94
70533;BMP180;58088;51.186;17.130;2023-04-01T04:39:07;98473.40;;;11.94
70533;BMP180;58088;51.186;17.130;2023-04-01T04:41:37;98470.00;;;11.90
70533;BMP180;58088;51.186;17.130;2023-04-01T04:44:04;98468.40;;;11.90
70533;BMP180;58088;51.186;17.130;2023-04-01T04:46:32;98466.20;;;11.90
70533;BMP180;58088;51.186;17.130;2023-04-01T04:49:06;98476.00;;;11.90
70533;BMP180;58088;51.186;17.130;2023-04-01T04:51:32;98471.00;;;11.90
70533;BMP180;58088;51.186;17.130;2023-04-01T04:54:03;98474.00;;;11.90
70533;BMP180;58088;51.186;17.130;2023-04-01T04:56:41;98471.80;;;11.90
70533;BMP180;58088;51.186;17.130;2023-04-01T04:59:10;98472.80;;;11.90
70533;BMP180;58088;51.186;17.130;2023-04-01T05:01:58;98476.00;;;11.90
70533;BMP180;58088;51.186;17.130;2023-04-01T05:04:24;98477.40;;;11.90
70533;BMP180;58088;51.186;17.130;2023-04-01T05:06:51;98477.20;;;11.90
70533;BMP180;58088;51.186;17.130;2023-04-01T05:09:17;98482.20;;;11.90
70533;BMP180;58088;51.186;17.130;2023-04-01T05:11:44;98480.80;;;11.84
70533;BMP180;58088;51.186;17.130;2023-04-01T05:14:15;98482.40;;;11.90
70533;BMP180;58088;51.186;17.130;2023-04-01T05:16:44;98484.40;;;11.88
70533;BMP180;58088;51.186;17.130;2023-04-01T05:19:11;98483.40;;;11.90
70533;BMP180;58088;51.186;17.130;2023-04-01T05:21:37;98483.80;;;11.90
70533;BMP180;58088;51.186;17.130;2023-04-01T05:24:08;98482.80;;;11.90
70533;BMP180;58088;51.186;17.130;2023-04-01T05:26:36;98482.40;;;11.96
70533;BMP180;58088;51.186;17.130;2023-04-01T05:29:04;98485.80;;;12.00
70533;BMP180;58088;51.186;17.130;2023-04-01T05:31:31;98480.60;;;12.00
70533;BMP180;58088;51.186;17.130;2023-04-01T05:33:57;98488.00;;;12.00
70533;BMP180;58088;51.186;17.130;2023-04-01T05:36:23;98483.40;;;12.00
70533;BMP180;58088;51.186;17.130;2023-04-01T05:38:50;98481.00;;;12.00
70533;BMP180;58088;51.186;17.130;2023-04-01T05:41:17;98487.40;;;12.00
70533;BMP180;58088;51.186;17.130;2023-04-01T05:43:45;98491.60;;;12.00
70533;BMP180;58088;51.186;17.130;2023-04-01T05:46:32;98489.40;;;12.00
70533;BMP180;58088;51.186;17.130;2023-04-01T05:49:31;98484.20;;;12.10
70533;BMP180;58088;51.186;17.130;2023-04-01T05:51:59;98486.00;;;12.10
70533;BMP180;58088;51.186;17.130;2023-04-01T05:54:26;98487.20;;;12.10
70533;BMP180;58088;51.186;17.130;2023-04-01T05:56:53;98486.20;;;12.10
70533;BMP180;58088;51.186;17.130;2023-04-01T05:59:19;98484.80;;;12.10
70533;BMP180;58088;51.186;17.130;2023-04-01T06:01:45;98485.00;;;12.10
70533;BMP180;58088;51.186;17.130;2023-04-01T06:04:17;98490.00;;;12.10
70533;BMP180;58088;51.186;17.130;2023-04-01T06:06:44;98498.20;;;12.20
70533;BMP180;58088;51.186;17.130;2023-04-01T06:09:29;98498.00;;;12.20
70533;BMP180;58088;51.186;17.130;2023-04-01T06:17:43;98509.80;;;12.20
70533;BMP180;58088;51.186;17.130;2023-04-01T06:26:03;98509.60;;;12.20
70533;BMP180;58088;51.186;17.130;2023-04-01T06:29:02;98516.00;;;12.26
70533;BMP180;58088;51.186;17.130;2023-04-01T06:39:56;98512.00;;;12.40
70533;BMP180;58088;51.186;17.130;2023-04-01T06:42:53;98517.20;;;12.40
70533;BMP180;58088;51.186;17.130;2023-04-01T06:46:33;98517.00;;;12.40
70533;BMP180;58088;51.186;17.130;2023-04-01T06:53:24;98518.60;;;12.40
70533;BMP180;58088;51.186;17.130;2023-04-01T06:56:11;98519.60;;;12.40
70533;BMP180;58088;51.186;17.130;2023-04-01T06:58:59;98523.40;;;12.40
70533;BMP180;58088;51.186;17.130;2023-04-01T07:01:45;98525.20;;;12.30
70533;BMP180;58088;51.186;17.130;2023-04-01T07:04:31;98524.60;;;12.40
70533;BMP180;58088;51.186;17.130;2023-04-01T07:07:05;98523.00;;;12.40
70533;BMP180;58088;51.186;17.130;2023-04-01T07:09:56;98523.40;;;12.40
70533;BMP180;58088;51.186;17.130;2023-04-01T07:12:44;98519.80;;;12.50
70533;BMP180;58088;51.186;17.130;2023-04-01T07:15:39;98521.40;;;12.50
70533;BMP180;58088;51.186;17.130;2023-04-01T07:18:54;98525.00;;;12.50
70533;BMP180;58088;51.186;17.130;2023-04-01T07:21:28;98517.60;;;12.50
70533;BMP180;58088;51.186;17.130;2023-04-01T07:24:05;98526.00;;;12.50
70533;BMP180;58088;51.186;17.130;2023-04-01T07:26:39;98526.60;;;12.60
70533;BMP180;58088;51.186;17.130;2023-04-01T07:29:14;98532.60;;;12.60
70533;BMP180;58088;51.186;17.130;2023-04-01T07:40:21;98543.80;;;12.70
70533;BMP180;58088;51.186;17.130;2023-04-01T07:46:10;98536.00;;;12.70
70533;BMP180;58088;51.186;17.130;2023-04-01T07:48:58;98535.00;;;12.70
70533;BMP180;58088;51.186;17.130;2023-04-01T07:54:29;98540.40;;;12.70
70533;BMP180;58088;51.186;17.130;2023-04-01T07:57:38;98544.00;;;12.70
70533;BMP180;58088;51.186;17.130;2023-04-01T08:03:23;98546.60;;;12.80
70533;BMP180;58088;51.186;17.130;2023-04-01T08:06:11;98551.40;;;12.80
70533;BMP180;58088;51.186;17.130;2023-04-01T08:09:54;98547.60;;;12.80
70533;BMP180;58088;51.186;17.130;2023-04-01T08:12:58;98554.80;;;12.82
70533;BMP180;58088;51.186;17.130;2023-04-01T08:15:59;98559.40;;;12.90
70533;BMP180;58088;51.186;17.130;2023-04-01T08:19:09;98559.00;;;12.90
70533;BMP180;58088;51.186;17.130;2023-04-01T08:21:47;98561.80;;;12.90
70533;BMP180;58088;51.186;17.130;2023-04-01T08:27:05;98561.60;;;12.90
70533;BMP180;58088;51.186;17.130;2023-04-01T08:29:35;98558.80;;;12.90
70533;BMP180;58088;51.186;17.130;2023-04-01T08:32:26;98560.40;;;12.90
70533;BMP180;58088;51.186;17.130;2023-04-01T08:35:31;98569.20;;;12.90
70533;BMP180;58088;51.186;17.130;2023-04-01T08:38:44;98562.80;;;13.00
70533;BMP180;58088;51.186;17.130;2023-04-01T08:48:00;98573.60;;;13.10
70533;BMP180;58088;51.186;17.130;2023-04-01T08:56:25;98569.00;;;13.20
70533;BMP180;58088;51.186;17.130;2023-04-01T09:05:47;98572.00;;;13.30
70533;BMP180;58088;51.186;17.130;2023-04-01T09:12:01;98575.40;;;13.40
70533;BMP180;58088;51.186;17.130;2023-04-01T09:24:07;98594.80;;;13.50
70533;BMP180;58088;51.186;17.130;2023-04-01T09:30:17;98600.80;;;13.54
70533;BMP180;58088;51.186;17.130;2023-04-01T09:34:03;98613.20;;;13.50
70533;BMP180;58088;51.186;17.130;2023-04-01T09:39:36;98611.40;;;13.40
70533;BMP180;58088;51.186;17.130;2023-04-01T09:42:42;98611.80;;;13.30
70533;BMP180;58088;51.186;17.130;2023-04-01T09:51:26;98619.80;;;13.00
70533;BMP180;58088;51.186;17.130;2023-04-01T09:54:09;98618.00;;;12.98
70533;BMP180;58088;51.186;17.130;2023-04-01T09:56:59;98617.40;;;12.90
70533;BMP180;58088;51.186;17.130;2023-04-01T09:59:55;98619.80;;;12.90
70533;BMP180;58088;51.186;17.130;2023-04-01T10:11:52;98627.60;;;12.98
70533;BMP180;58088;51.186;17.130;2023-04-01T10:21:11;98638.00;;;12.92
70533;BMP180;58088;51.186;17.130;2023-04-01T10:24:01;98639.00;;;12.90
70533;BMP180;58088;51.186;17.130;2023-04-01T10:29:52;98644.80;;;12.94
70533;BMP180;58088;51.186;17.130;2023-04-01T10:32:56;98642.20;;;13.00
70533;BMP180;58088;51.186;17.130;2023-04-01T11:09:36;98656.20;;;13.32
70533;BMP180;58088;51.186;17.130;2023-04-01T11:15:53;98660.20;;;13.52
70533;BMP180;58088;51.186;17.130;2023-04-01T11:18:55;98659.60;;;13.58
70533;BMP180;58088;51.186;17.130;2023-04-01T11:22:14;98658.00;;;13.60
70533;BMP180;58088;51.186;17.130;2023-04-01T11:31:35;98661.20;;;13.80
70533;BMP180;58088;51.186;17.130;2023-04-01T11:34:24;98662.20;;;13.90
70533;BMP180;58088;51.186;17.130;2023-04-01T11:43:32;98666.40;;;14.10
70533;BMP180;58088;51.186;17.130;2023-04-01T12:01:56;98678.60;;;13.90
70533;BMP180;58088;51.186;17.130;2023-04-01T12:08:13;98680.60;;;13.98
70533;BMP180;58088;51.186;17.130;2023-04-01T12:16:26;98689.40;;;14.00
70533;BMP180;58088;51.186;17.130;2023-04-01T12:28:00;98696.80;;;14.20
70533;BMP180;58088;51.186;17.130;2023-04-01T12:37:12;98691.00;;;14.40
70533;BMP180;58088;51.186;17.130;2023-04-01T12:58:35;98697.60;;;15.10
70533;BMP180;58088;51.186;17.130;2023-04-01T13:04:24;98703.40;;;15.40
70533;BMP180;58088;51.186;17.130;2023-04-01T13:10:26;98708.40;;;15.60
70533;BMP180;58088;51.186;17.130;2023-04-01T13:15:37;98694.60;;;15.70
70533;BMP180;58088;51.186;17.130;2023-04-01T13:21:20;98711.60;;;15.80
70533;BMP180;58088;51.186;17.130;2023-04-01T13:27:08;98713.80;;;15.80
70533;BMP180;58088;51.186;17.130;2023-04-01T13:30:13;98717.60;;;15.80
70533;BMP180;58088;51.186;17.130;2023-04-01T13:35:46;98727.60;;;15.84
70533;BMP180;58088;51.186;17.130;2023-04-01T13:44:27;98739.40;;;15.90
70533;BMP180;58088;51.186;17.130;2023-04-01T13:47:17;98734.80;;;15.80
70533;BMP180;58088;51.186;17.130;2023-04-01T13:50:19;98736.60;;;15.80
70533;BMP180;58088;51.186;17.130;2023-04-01T13:58:59;98746.40;;;15.62
70533;BMP180;58088;51.186;17.130;2023-04-01T14:01:50;98753.80;;;15.50
70533;BMP180;58088;51.186;17.130;2023-04-01T14:04:30;98753.60;;;15.30
70533;BMP180;58088;51.186;17.130;2023-04-01T14:07:44;98756.20;;;15.20
70533;BMP180;58088;51.186;17.130;2023-04-01T14:14:05;98757.40;;;15.00
70533;BMP180;58088;51.186;17.130;2023-04-01T14:16:59;98763.80;;;14.98
70533;BMP180;58088;51.186;17.130;2023-04-01T14:19:31;98766.00;;;14.90
70533;BMP180;58088;51.186;17.130;2023-04-01T14:22:24;98764.80;;;14.94
70533;BMP180;58088;51.186;17.130;2023-04-01T14:28:18;98763.60;;;15.00
70533;BMP180;58088;51.186;17.130;2023-04-01T14:33:54;98773.40;;;15.10
70533;BMP180;58088;51.186;17.130;2023-04-01T14:36:50;98776.00;;;15.08
70533;BMP180;58088;51.186;17.130;2023-04-01T14:43:02;98779.60;;;15.02
70533;BMP180;58088;51.186;17.130;2023-04-01T14:45:46;98781.00;;;15.00
70533;BMP180;58088;51.186;17.130;2023-04-01T14:48:53;98788.20;;;14.90
70533;BMP180;58088;51.186;17.130;2023-04-01T14:51:37;98795.20;;;14.90
70533;BMP180;58088;51.186;17.130;2023-04-01T14:54:13;98806.00;;;14.90
70533;BMP180;58088;51.186;17.130;2023-04-01T14:56:47;98802.40;;;14.90
70533;BMP180;58088;51.186;17.130;2023-04-01T15:08:26;98813.80;;;14.80
70533;BMP180;58088;51.186;17.130;2023-04-01T15:14:17;98822.00;;;14.62
70533;BMP180;58088;51.186;17.130;2023-04-01T15:22:33;98831.00;;;14.50
70533;BMP180;58088;51.186;17.130;2023-04-01T15:34:26;98835.40;;;14.28
70533;BMP180;58088;51.186;17.130;2023-04-01T15:40:20;98835.80;;;14.10
70533;BMP180;58088;51.186;17.130;2023-04-01T15:43:16;98834.80;;;14.10
70533;BMP180;58088;51.186;17.130;2023-04-01T15:49:10;98837.00;;;14.10
70533;BMP180;58088;51.186;17.130;2023-04-01T15:52:22;98839.80;;;14.10
70533;BMP180;58088;51.186;17.130;2023-04-01T15:55:19;98839.60;;;14.00
70533;BMP180;58088;51.186;17.130;2023-04-01T16:06:52;98842.20;;;13.90
70533;BMP180;58088;51.186;17.130;2023-04-01T16:20:51;98853.60;;;14.00
70533;BMP180;58088;51.186;17.130;2023-04-01T16:26:29;98865.00;;;14.00
70533;BMP180;58088;51.186;17.130;2023-04-01T16:32:34;98870.20;;;14.00
70533;BMP180;58088;51.186;17.130;2023-04-01T16:35:42;98876.00;;;14.00
70533;BMP180;58088;51.186;17.130;2023-04-01T16:41:11;98884.40;;;13.90
70533;BMP180;58088;51.186;17.130;2023-04-01T16:43:50;98893.40;;;13.90
70533;BMP180;58088;51.186;17.130;2023-04-01T16:46:34;98901.40;;;13.86
70533;BMP180;58088;51.186;17.130;2023-04-01T16:54:50;98909.80;;;13.70
70533;BMP180;58088;51.186;17.130;2023-04-01T17:00:25;98917.20;;;13.66
70533;BMP180;58088;51.186;17.130;2023-04-01T17:06:34;98916.80;;;13.50
70533;BMP180;58088;51.186;17.130;2023-04-01T17:09:43;98919.60;;;13.40
70533;BMP180;58088;51.186;17.130;2023-04-01T17:12:45;98932.60;;;13.30
70533;BMP180;58088;51.186;17.130;2023-04-01T17:21:18;98942.80;;;13.10
70533;BMP180;58088;51.186;17.130;2023-04-01T17:41:28;98972.60;;;12.80
70533;BMP180;58088;51.186;17.130;2023-04-01T17:59:44;98998.60;;;12.50
70533;BMP180;58088;51.186;17.130;2023-04-01T18:02:39;99007.20;;;12.40
70533;BMP180;58088;51.186;17.130;2023-04-01T18:08:34;99015.40;;;12.40
70533;BMP180;58088;51.186;17.130;2023-04-01T18:15:00;99022.60;;;12.30
70533;BMP180;58088;51.186;17.130;2023-04-01T18:24:28;99046.20;;;12.10
70533;BMP180;58088;51.186;17.130;2023-04-01T18:27:04;99041.80;;;12.10
70533;BMP180;58088;51.186;17.130;2023-04-01T18:29:54;99047.60;;;12.10
70533;BMP180;58088;51.186;17.130;2023-04-01T18:32:36;99056.40;;;12.10
70533;BMP180;58088;51.186;17.130;2023-04-01T18:38:52;99060.40;;;12.10
70533;BMP180;58088;51.186;17.130;2023-04-01T18:41:34;99065.80;;;12.04
70533;BMP180;58088;51.186;17.130;2023-04-01T18:44:38;99073.00;;;12.00
70533;BMP180;58088;51.186;17.130;2023-04-01T18:50:58;99081.40;;;12.00
70533;BMP180;58088;51.186;17.130;2023-04-01T18:53:41;99094.00;;;12.00
70533;BMP180;58088;51.186;17.130;2023-04-01T18:56:15;99084.20;;;11.98
70533;BMP180;58088;51.186;17.130;2023-04-01T19:04:41;99094.20;;;11.98
70533;BMP180;58088;51.186;17.130;2023-04-01T19:07:48;99097.60;;;12.00
70533;BMP180;58088;51.186;17.130;2023-04-01T19:13:57;99099.80;;;11.90
70533;BMP180;58088;51.186;17.130;2023-04-01T19:23:22;99112.20;;;11.80
70533;BMP180;58088;51.186;17.130;2023-04-01T19:25:58;99111.80;;;11.80
70533;BMP180;58088;51.186;17.130;2023-04-01T19:35:26;99122.40;;;11.80
70533;BMP180;58088;51.186;17.130;2023-04-01T19:38:31;99126.60;;;11.80
70533;BMP180;58088;51.186;17.130;2023-04-01T19:41:43;99130.00;;;11.80
70533;BMP180;58088;51.186;17.130;2023-04-01T19:52:43;99137.40;;;11.90
70533;BMP180;58088;51.186;17.130;2023-04-01T19:55:40;99142.20;;;11.90
70533;BMP180;58088;51.186;17.130;2023-04-01T20:01:00;99156.00;;;11.90
70533;BMP180;58088;51.186;17.130;2023-04-01T20:03:54;99157.80;;;11.90
70533;BMP180;58088;51.186;17.130;2023-04-01T20:09:14;99156.60;;;11.90
70533;BMP180;58088;51.186;17.130;2023-04-01T20:12:17;99161.20;;;11.82
70533;BMP180;58088;51.186;17.130;2023-04-01T20:14:51;99166.80;;;11.80
70533;BMP180;58088;51.186;17.130;2023-04-01T20:17:42;99168.80;;;11.80
70533;BMP180;58088;51.186;17.130;2023-04-01T20:20:25;99176.60;;;11.80
70533;BMP180;58088;51.186;17.130;2023-04-01T20:23:02;99175.20;;;11.80
70533;BMP180;58088;51.186;17.130;2023-04-01T20:26:25;99178.20;;;11.70
70533;BMP180;58088;51.186;17.130;2023-04-01T20:31:44;99182.00;;;11.70
70533;BMP180;58088;51.186;17.130;2023-04-01T20:38:16;99191.60;;;11.64
70533;BMP180;58088;51.186;17.130;2023-04-01T20:40:50;99195.60;;;11.60
70533;BMP180;58088;51.186;17.130;2023-04-01T20:43:30;99194.60;;;11.60
70533;BMP180;58088;51.186;17.130;2023-04-01T20:46:27;99192.20;;;11.60
70533;BMP180;58088;51.186;17.130;2023-04-01T21:12:22;99222.80;;;11.30
70533;BMP180;58088;51.186;17.130;2023-04-01T21:15:11;99224.80;;;11.28
70533;BMP180;58088;51.186;17.130;2023-04-01T21:17:49;99230.40;;;11.20
70533;BMP180;58088;51.186;17.130;2023-04-01T21:23:52;99243.00;;;11.00
70533;BMP180;58088;51.186;17.130;2023-04-01T21:26:56;99240.60;;;10.98
70533;BMP180;58088;51.186;17.130;2023-04-01T21:50:55;99265.80;;;10.70
70533;BMP180;58088;51.186;17.130;2023-04-01T22:05:32;99265.40;;;10.60
70533;BMP180;58088;51.186;17.130;2023-04-01T22:08:31;99272.00;;;10.60
70533;BMP180;58088;51.186;17.130;2023-04-01T22:11:30;99272.00;;;10.60
70533;BMP180;58088;51.186;17.130;2023-04-01T22:14:17;99277.80;;;10.60
70533;BMP180;58088;51.186;17.130;2023-04-01T22:17:11;99270.40;;;10.58
70533;BMP180;58088;51.186;17.130;2023-04-01T22:26:22;99284.40;;;10.60
70533;BMP180;58088;51.186;17.130;2023-04-01T22:32:03;99288.00;;;10.50
70533;BMP180;58088;51.186;17.130;2023-04-01T22:41:12;99292.80;;;10.50
70533;BMP180;58088;51.186;17.130;2023-04-01T22:43:44;99307.40;;;10.50
70533;BMP180;58088;51.186;17.130;2023-04-01T22:49:42;99310.80;;;10.50
70533;BMP180;58088;51.186;17.130;2023-04-01T22:52:33;99304.40;;;10.40
70533;BMP180;58088;51.186;17.130;2023-04-01T22:55:21;99314.00;;;10.40
70533;BMP180;58088;51.186;17.130;2023-04-01T22:58:10;99318.40;;;10.40
70533;BMP180;58088;51.186;17.130;2023-04-01T23:00:44;99327.40;;;10.30
70533;BMP180;58088;51.186;17.130;2023-04-01T23:03:31;99328.60;;;10.30
70533;BMP180;58088;51.186;17.130;2023-04-01T23:06:03;99330.00;;;10.26
70533;BMP180;58088;51.186;17.130;2023-04-01T23:08:54;99333.40;;;10.22
70533;BMP180;58088;51.186;17.130;2023-04-01T23:11:44;99333.60;;;10.20
70533;BMP180;58088;51.186;17.130;2023-04-01T23:15:01;99335.40;;;10.10
70533;BMP180;58088;51.186;17.130;2023-04-01T23:20:47;99347.00;;;10.00
70533;BMP180;58088;51.186;17.130;2023-04-01T23:26:34;99364.00;;;9.80
70533;BMP180;58088;51.186;17.130;2023-04-01T23:29:03;99356.80;;;9.70
70533;BMP180;58088;51.186;17.130;2023-04-01T23:31:35;99359.20;;;9.68
70533;BMP180;58088;51.186;17.130;2023-04-01T23:36:44;99370.00;;;9.60
70533;BMP180;58088;51.186;17.130;2023-04-01T23:39:30;99370.00;;;9.60
70533;BMP180;58088;51.186;17.130;2023-04-01T23:42:12;99379.00;;;9.50
70533;BMP180;58088;51.186;17.130;2023-04-01T23:44:39;99384.20;;;9.50
70533;BMP180;58088;51.186;17.130;2023-04-01T23:47:13;99385.00;;;9.40
70533;BMP180;58088;51.186;17.130;2023-04-01T23:49:59;99383.80;;;9.38
70533;BMP180;58088;51.186;17.130;2023-04-01T23:52:34;99388.00;;;9.30
70533;BMP180;58088;51.186;17.130;2023-04-01T23:55:14;99391.60;;;9.30
